Speegleville, Texas
Current Conditions -  °F | °C
As of 2:51 AM on Thursday 23 Oct 2014 (Local Time) from KACT Reporting Station
Light Rain Light Rain  
Wind Chill: 19°   Ceiling: 10000
Heat Index: 19°   Visibility: 10mi
Dew Point: 15°   Wind: 3mph
Humidity: 78%   Direction: 120°ESE
Pressure: 30.1"   Gusts: NA
Location:  31.5356°N, 97.1921°W
Report Text: KACT 230751Z 12003KT 10SM -RA FEW048 BKN100 19/15 A3010 RMK AO2 RAB25 SLP187 P0000 T01890150
Loading
Personal Weather Stations






























Interactive Weather Map
Tropical Storm Tracking
New forecast layout! Learn more

10-Day Weather Forecast

Advertisements
Track Severe Weather on mobile